Time;durP1;ratioP1;P1;durP2;ratioP2;P2;SDS_P1;SDS_P2;PMS_P1;PMS_P2;Temp;Humidity;BMP_temperature;BMP_pressure;BME280_temperature;BME280_humidity;BME280_pressure;Samples;Min_cycle;Max_cycle;Signal;HPM_P1;HPM_P2
2021/08/22 07:00:27;;;;;;;6.30;4.00;;;;;;;18.90;91.81;98908.34;5935380;23;21259;-77
2021/08/22 07:02:52;;;;;;;6.43;3.97;;;;;;;18.93;91.06;98914.31;4967248;28;20436;-77
2021/08/22 07:05:18;;;;;;;7.25;4.47;;;;;;;18.64;92.26;98914.84;4960366;28;20118;-77
2021/08/22 07:07:43;;;;;;;5.65;4.93;;;;;;;18.37;93.74;98906.53;4953623;29;20054;-76
2021/08/22 07:10:09;;;;;;;6.35;4.60;;;;;;;18.70;92.54;98907.56;4953400;29;20159;-77
2021/08/22 07:12:35;;;;;;;7.68;4.53;;;;;;;18.45;94.72;98907.00;4933105;29;20416;-77
2021/08/22 07:15:01;;;;;;;5.63;4.22;;;;;;;18.22;96.04;98911.56;4934869;29;20040;-75
2021/08/22 07:17:26;;;;;;;5.93;4.65;;;;;;;18.40;93.89;98909.00;4934970;29;20020;-75
2021/08/22 07:19:52;;;;;;;7.20;4.15;;;;;;;18.29;94.61;98916.56;4941053;29;20472;-75
2021/08/22 07:22:17;;;;;;;5.07;4.43;;;;;;;18.29;94.64;98917.41;4957059;28;20034;-75
2021/08/22 07:24:42;;;;;;;7.38;4.53;;;;;;;18.51;93.52;98911.97;4957250;28;20392;-75
2021/08/22 07:27:08;;;;;;;9.32;4.15;;;;;;;18.50;94.29;98910.28;4957149;28;20020;-75
2021/08/22 07:29:35;;;;;;;6.15;4.53;;;;;;;18.14;94.83;98911.09;4957153;28;20055;-76
2021/08/22 07:32:00;;;;;;;7.35;4.70;;;;;;;18.33;95.51;98905.00;4956824;28;20033;-75
2021/08/22 07:34:26;;;;;;;5.25;4.35;;;;;;;18.48;95.47;98897.22;4899785;28;20036;-76
2021/08/22 07:36:51;;;;;;;7.43;4.00;;;;;;;18.86;93.71;98904.19;4937937;29;20131;-76
2021/08/22 07:39:16;;;;;;;5.72;3.85;;;;;;;19.39;89.48;98903.22;4937851;29;20096;-76
2021/08/22 07:41:41;;;;;;;7.22;4.90;;;;;;;19.07;91.02;98905.72;4952281;28;20023;-76
2021/08/22 07:44:07;;;;;;;5.13;4.00;;;;;;;18.99;91.35;98906.09;4937659;29;20051;-76
2021/08/22 07:46:32;;;;;;;6.03;4.22;;;;;;;18.96;92.20;98910.69;4937579;29;20038;-76
2021/08/22 07:48:58;;;;;;;8.20;4.00;;;;;;;19.45;90.85;98911.66;4937555;29;20030;-76
2021/08/22 07:51:24;;;;;;;8.10;4.38;;;;;;;19.90;88.72;98906.69;4952546;28;20033;-76
2021/08/22 07:53:49;;;;;;;6.43;4.75;;;;;;;20.40;85.89;98908.31;4956797;28;20030;-76
2021/08/22 07:56:14;;;;;;;5.07;3.65;;;;;;;21.53;79.58;98905.25;4956568;28;20383;-76
2021/08/22 07:58:40;;;;;;;4.53;3.50;;;;;;;22.32;77.64;98910.00;4956682;28;20031;-76
2021/08/22 08:01:05;;;;;;;6.60;3.83;;;;;;;22.70;75.01;98911.97;4956062;28;20035;-76
2021/08/22 08:03:30;;;;;;;9.05;3.53;;;;;;;23.01;72.75;98905.53;4948222;28;20044;-76
2021/08/22 08:05:56;;;;;;;9.98;3.83;;;;;;;23.08;71.96;98913.91;4942493;29;20027;-76
2021/08/22 08:08:22;;;;;;;7.05;3.75;;;;;;;22.76;71.41;98924.78;4937187;29;20046;-77
2021/08/22 08:10:48;;;;;;;5.07;3.58;;;;;;;23.65;70.09;98918.03;4936497;29;20042;-76
2021/08/22 08:13:13;;;;;;;7.10;3.70;;;;;;;24.81;66.04;98914.97;4935294;29;20027;-76
2021/08/22 08:15:39;;;;;;;5.50;3.83;;;;;;;24.49;68.05;98925.28;4935322;29;20155;-76
2021/08/22 08:18:04;;;;;;;5.70;3.10;;;;;;;25.21;63.61;98918.16;4935491;29;20072;-76
2021/08/22 08:20:29;;;;;;;7.65;3.63;;;;;;;25.02;64.75;98912.50;4943004;28;20484;-76
2021/08/22 08:22:55;;;;;;;3.75;3.33;;;;;;;24.69;66.29;98916.72;4954375;28;20042;-74
2021/08/22 08:25:20;;;;;;;7.35;3.80;;;;;;;25.10;65.41;98915.47;4954677;28;20030;-74
2021/08/22 08:27:47;;;;;;;3.53;2.80;;;;;;;26.32;56.92;98927.16;4955997;28;20118;-74
2021/08/22 08:30:13;;;;;;;8.57;3.25;;;;;;;26.02;60.81;98934.94;4955752;28;20027;-74
2021/08/22 08:32:38;;;;;;;4.97;3.30;;;;;;;26.04;58.30;98930.34;4952240;28;20115;-71
2021/08/22 08:35:05;;;;;;;4.45;3.10;;;;;;;25.67;59.60;98929.69;4959359;28;20031;-73
2021/08/22 08:37:31;;;;;;;4.25;3.38;;;;;;;24.80;65.52;98927.38;4936740;29;20034;-73
2021/08/22 08:39:56;;;;;;;4.85;2.50;;;;;;;24.32;65.07;98916.75;4935526;29;20027;-74
2021/08/22 08:42:35;;;;;;;5.20;3.25;;;;;;;24.07;62.37;98924.72;4936452;29;20119;-73
2021/08/22 08:45:00;;;;;;;;;;;;;;;23.40;65.60;98930.22;4937212;29;20059;-73
2021/08/22 08:47:27;;;;;;;5.27;3.70;;;;;;;23.07;67.68;98928.09;4936455;29;20025;-73
2021/08/22 08:50:08;;;;;;;5.80;3.58;;;;;;;22.86;70.38;98940.88;4939535;29;20263;-73
2021/08/22 08:52:51;;;;;;;7.53;3.92;;;;;;;22.44;70.05;98926.03;4955551;28;20019;-73
2021/08/22 08:55:22;;;;;;;5.90;3.90;;;;;;;22.40;72.07;98937.75;4955551;28;20027;-74
2021/08/22 08:57:47;;;;;;;7.20;3.67;;;;;;;22.41;73.87;98944.72;4955610;28;20143;-73
2021/08/22 09:00:23;;;;;;;8.93;3.60;;;;;;;22.40;73.46;98943.03;4955327;28;20500;-73
2021/08/22 09:02:49;;;;;;;9.05;5.70;;;;;;;22.84;72.31;98933.06;4950334;28;20024;-77
2021/08/22 09:06:00;;;;;;;7.47;4.25;;;;;;;23.21;67.77;98935.06;4944027;29;20019;-78
2021/08/22 09:08:53;;;;;;;5.10;3.90;;;;;;;22.92;68.60;98944.94;4930948;29;20036;-78
2021/08/22 09:11:36;;;;;;;5.88;3.60;;;;;;;22.50;72.25;98944.13;4936034;29;20027;-77
2021/08/22 09:14:38;;;;;;;5.78;4.00;;;;;;;22.14;72.78;98958.69;4935973;29;20039;-77
2021/08/22 09:17:28;;;;;;;5.50;4.22;;;;;;;21.80;75.99;98949.34;4936169;29;20070;-77
2021/08/22 09:20:35;;;;;;;5.50;3.83;;;;;;;22.03;76.30;98951.41;4939164;29;20046;-77
2021/08/22 09:23:25;;;;;;;4.13;3.72;;;;;;;22.14;76.59;98942.84;4927395;28;20067;-77
2021/08/22 09:26:15;;;;;;;4.13;3.72;;;;;;;22.20;76.18;98937.22;4954871;28;20121;-77
2021/08/22 09:29:17;;;;;;;8.10;3.75;;;;;;;22.44;74.64;98936.59;4928952;28;20094;-76
2021/08/22 09:32:01;;;;;;;4.72;3.58;;;;;;;22.81;70.57;98935.88;4954724;28;20063;-76
2021/08/22 09:35:04;;;;;;;4.68;3.83;;;;;;;22.84;72.31;98937.50;4938726;29;20394;-76
2021/08/22 09:37:29;;;;;;;6.70;3.70;;;;;;;22.38;71.45;98939.63;4954829;29;20027;-77
2021/08/22 09:40:22;;;;;;;6.53;4.18;;;;;;;22.52;73.96;98935.13;4954333;28;20034;-74
2021/08/22 09:43:15;;;;;;;7.22;3.95;;;;;;;21.42;77.87;98939.34;4953477;29;20385;-76
2021/08/22 09:46:18;;;;;;;5.53;4.03;;;;;;;21.05;75.86;98924.81;4954553;28;20031;-73
2021/08/22 09:49:01;;;;;;;7.35;4.32;;;;;;;20.52;79.66;98926.94;4954691;29;20074;-73
2021/08/22 09:51:45;;;;;;;6.28;4.22;;;;;;;20.34;80.86;98927.94;4954380;28;20031;-72
2021/08/22 09:54:56;;;;;;;6.50;4.30;;;;;;;19.97;85.40;98934.38;4954433;28;20031;-76
2021/08/22 09:57:58;;;;;;;12.38;4.40;;;;;;;19.91;89.90;98932.91;4932213;28;20097;-73
2021/08/22 10:00:36;;;;;;;9.05;5.18;;;;;;;19.83;89.67;98937.75;4954087;28;20392;-73
2021/08/22 10:03:07;;;;;;;8.55;4.55;;;;;;;20.04;90.19;98922.59;4947817;28;20031;-73
2021/08/22 10:05:45;;;;;;;7.57;4.75;;;;;;;20.15;89.91;98927.25;4942909;29;20027;-76
2021/08/22 10:08:15;;;;;;;6.93;4.18;;;;;;;20.24;88.34;98939.91;4935179;29;20031;-73
2021/08/22 10:10:48;;;;;;;9.00;4.43;;;;;;;20.72;86.82;98944.25;4935020;29;20032;-75
2021/08/22 10:13:14;;;;;;;6.18;4.30;;;;;;;20.52;87.48;98939.28;4934913;29;20560;-76
2021/08/22 10:15:43;;;;;;;7.65;4.15;;;;;;;20.56;87.98;98943.44;4935082;29;20023;-73
2021/08/22 10:18:09;;;;;;;8.13;4.93;;;;;;;20.26;87.99;98945.97;4935080;29;20032;-73
2021/08/22 10:20:40;;;;;;;4.82;4.32;;;;;;;20.78;85.03;98933.34;4943268;28;20041;-76
2021/08/22 10:23:05;;;;;;;9.32;4.00;;;;;;;20.43;85.51;98939.75;4954061;28;20051;-76
2021/08/22 10:25:57;;;;;;;5.40;4.18;;;;;;;20.55;85.95;98936.47;4953981;28;20111;-75
2021/08/22 10:28:56;;;;;;;6.22;4.90;;;;;;;20.41;85.99;98939.84;4951233;28;20039;-73
2021/08/22 10:31:52;;;;;;;8.15;4.88;;;;;;;20.17;87.47;98941.19;4953982;28;20045;-73
2021/08/22 10:34:24;;;;;;;6.50;5.00;;;;;;;20.44;86.76;98938.81;4950580;29;20093;-76
2021/08/22 10:36:50;;;;;;;5.70;5.07;;;;;;;20.98;82.85;98929.59;4934880;29;20504;-73
2021/08/22 10:39:29;;;;;;;5.65;4.28;;;;;;;21.10;82.17;98930.66;4934783;29;20031;-74
2021/08/22 10:41:58;;;;;;;7.15;4.75;;;;;;;21.01;82.57;98923.28;4934685;29;20031;-74
2021/08/22 10:44:36;;;;;;;4.90;4.45;;;;;;;20.97;80.77;98927.03;4934781;29;20032;-73
2021/08/22 10:47:03;;;;;;;6.35;5.10;;;;;;;20.75;84.25;98930.06;4934620;29;20418;-75
2021/08/22 10:49:50;;;;;;;5.97;5.10;;;;;;;20.47;85.33;98929.00;4933572;29;20500;-73
2021/08/22 10:52:23;;;;;;;5.90;5.18;;;;;;;20.18;87.84;98927.09;4953951;28;20083;-75
2021/08/22 10:55:13;;;;;;;7.72;5.53;;;;;;;19.96;89.58;98924.78;4957825;28;20472;-75
2021/08/22 10:57:44;;;;;;;9.82;5.72;;;;;;;19.80;89.85;98921.28;4957679;28;20030;-75
2021/08/22 11:00:20;;;;;;;9.00;5.38;;;;;;;19.73;89.54;98916.34;4957470;28;20034;-75
2021/08/22 11:02:45;;;;;;;10.02;5.50;;;;;;;19.65;89.50;98907.16;4951639;29;20079;-75
2021/08/22 11:05:16;;;;;;;5.93;5.22;;;;;;;19.70;88.77;98905.97;4946207;29;20028;-75
2021/08/22 11:07:51;;;;;;;8.48;5.50;;;;;;;19.63;89.12;98915.13;4938443;29;20040;-73
2021/08/22 11:10:17;;;;;;;7.00;5.45;;;;;;;19.48;91.31;98935.13;4938312;29;20082;-75
2021/08/22 11:12:43;;;;;;;13.45;6.65;;;;;;;19.26;95.75;98927.50;4937824;29;20027;-73
2021/08/22 11:15:23;;;;;;;7.95;5.65;;;;;;;18.92;94.69;98938.88;4938341;29;20452;-76
2021/08/22 11:17:54;;;;;;;9.77;4.75;;;;;;;18.80;96.19;98944.69;4938203;29;20492;-76
2021/08/22 11:20:21;;;;;;;7.40;4.95;;;;;;;18.80;95.38;98949.09;4944654;28;20456;-75
2021/08/22 11:22:50;;;;;;;6.00;4.10;;;;;;;18.83;95.28;98943.72;4957200;28;20030;-73
2021/08/22 11:25:15;;;;;;;5.18;4.20;;;;;;;18.80;93.78;98951.72;4957140;28;20023;-73
2021/08/22 11:27:41;;;;;;;5.13;4.10;;;;;;;18.82;93.83;98957.78;4957228;28;20039;-73
2021/08/22 11:30:09;;;;;;;4.18;3.53;;;;;;;18.87;94.16;98961.03;4957108;29;20469;-73
2021/08/22 11:32:36;;;;;;;4.45;3.30;;;;;;;19.25;93.39;98952.09;4953990;28;20026;-73
2021/08/22 11:35:15;;;;;;;4.18;3.63;;;;;;;19.67;88.67;98953.47;4944541;29;20493;-73
2021/08/22 11:37:43;;;;;;;10.13;3.45;;;;;;;19.76;88.04;98950.34;4937798;29;20050;-73
2021/08/22 11:40:10;;;;;;;2.95;2.65;;;;;;;19.45;87.34;98963.38;4937723;29;20556;-76
2021/08/22 11:42:36;;;;;;;5.32;3.15;;;;;;;19.40;86.75;98960.13;4936339;29;20032;-75
2021/08/22 11:45:10;;;;;;;3.72;2.75;;;;;;;19.18;87.56;98963.81;4937680;29;20027;-74
2021/08/22 11:47:37;;;;;;;4.50;3.38;;;;;;;19.02;88.68;98976.03;4937720;29;20525;-74
2021/08/22 11:50:08;;;;;;;5.55;2.45;;;;;;;18.93;88.10;98981.72;4941997;29;20031;-77
2021/08/22 11:52:36;;;;;;;14.93;7.95;;;;;;;18.63;89.44;98984.88;4956753;28;20504;-76
2021/08/22 11:55:05;;;;;;;2.50;1.90;;;;;;;18.12;90.05;98983.72;4956661;28;20035;-76
2021/08/22 11:57:30;;;;;;;8.70;2.13;;;;;;;17.75;90.81;98983.69;4956652;29;20039;-73
2021/08/22 11:59:58;;;;;;;2.42;1.55;;;;;;;17.64;92.87;98987.56;4956607;28;20027;-73
2021/08/22 12:02:25;;;;;;;3.78;1.58;;;;;;;17.75;93.48;98976.69;4953410;28;20408;-74
2021/08/22 12:05:12;;;;;;;4.15;2.03;;;;;;;18.10;90.94;98980.34;4944409;29;20027;-74
2021/08/22 12:07:38;;;;;;;2.05;1.60;;;;;;;18.24;91.09;98977.94;4937314;29;20078;-75
2021/08/22 12:10:04;;;;;;;2.08;1.65;;;;;;;18.18;89.85;98975.59;4937170;29;20023;-74
2021/08/22 12:12:29;;;;;;;5.13;1.60;;;;;;;18.33;89.40;98981.06;4937091;29;20102;-74
2021/08/22 12:15:06;;;;;;;3.67;1.83;;;;;;;18.37;91.16;98962.50;4937279;29;20473;-74
2021/08/22 12:17:32;;;;;;;9.10;2.55;;;;;;;18.91;89.43;98957.34;4937178;29;20738;-74
2021/08/22 12:20:13;;;;;;;4.45;1.75;;;;;;;19.35;86.14;98956.88;4940862;29;20038;-74
2021/08/22 12:22:38;;;;;;;2.97;2.00;;;;;;;19.37;82.87;98958.50;4956106;28;20063;-77
2021/08/22 12:25:04;;;;;;;7.03;2.30;;;;;;;19.36;84.86;98963.84;4956187;29;20066;-74
2021/08/22 12:27:31;;;;;;;4.90;2.10;;;;;;;19.30;84.65;98964.16;4956022;28;20416;-74
2021/08/22 12:30:14;;;;;;;9.13;5.93;;;;;;;19.08;85.08;98974.88;4956106;28;20110;-74
2021/08/22 12:32:39;;;;;;;2.50;2.08;;;;;;;19.01;88.70;98979.59;4952491;28;20024;-76
2021/08/22 12:35:07;;;;;;;2.85;1.80;;;;;;;19.20;86.61;98979.53;4944835;29;20032;-75
2021/08/22 12:37:34;;;;;;;3.50;1.80;;;;;;;19.16;87.18;98968.31;4935524;29;20020;-76
2021/08/22 12:40:03;;;;;;;2.28;1.70;;;;;;;18.91;85.85;98981.81;4935460;29;20401;-79
2021/08/22 12:42:29;;;;;;;;;;;;;;;18.61;88.82;98986.69;4936704;29;20023;-78
2021/08/22 12:44:57;;;;;;;4.03;1.63;;;;;;;18.60;90.81;98990.25;4936599;29;19917;-76
2021/08/22 12:47:23;;;;;;;3.10;2.03;;;;;;;18.56;92.22;98988.69;4936391;29;20024;-78
2021/08/22 12:49:49;;;;;;;3.38;2.20;;;;;;;18.83;92.63;98959.47;4938906;29;20030;-75
2021/08/22 12:52:15;;;;;;;2.55;2.35;;;;;;;19.31;87.79;98950.09;4955277;28;20027;-75
2021/08/22 12:54:42;;;;;;;3.15;2.60;;;;;;;19.36;85.72;98955.94;4954068;29;20055;-76
2021/08/22 12:57:08;;;;;;;3.53;2.72;;;;;;;19.46;87.52;98955.41;4955537;28;20027;-79
2021/08/22 12:59:34;;;;;;;2.83;2.50;;;;;;;19.56;86.65;98950.50;4955502;28;20045;-76
2021/08/22 13:01:59;;;;;;;2.83;2.58;;;;;;;19.48;88.68;98963.19;4954910;28;20135;-78
2021/08/22 13:04:26;;;;;;;3.60;2.50;;;;;;;19.29;87.68;98957.16;4939435;28;20034;-76
2021/08/22 13:06:56;;;;;;;2.30;2.10;;;;;;;19.30;88.60;98949.22;4955042;28;20062;-78
2021/08/22 13:09:23;;;;;;;4.53;2.67;;;;;;;19.24;87.60;98939.91;4954964;28;20067;-77
2021/08/22 13:11:49;;;;;;;3.38;2.22;;;;;;;19.16;86.57;98931.53;4954887;28;20027;-77
2021/08/22 13:16:42;;;;;;;2.78;2.00;;;;;;;19.03;86.89;98951.47;4990045;28;20050;-76
2021/08/22 13:19:08;;;;;;;2.80;2.50;;;;;;;19.00;89.48;98949.84;4993785;28;20042;-77
2021/08/22 13:21:33;;;;;;;2.35;1.90;;;;;;;19.24;88.77;98929.38;4993504;28;20097;-73
2021/08/22 13:23:59;;;;;;;4.95;2.50;;;;;;;19.38;88.53;98914.66;4993548;28;20431;-78
2021/08/22 13:26:26;;;;;;;2.97;2.22;;;;;;;19.79;84.59;98930.09;4993725;28;20026;-79
2021/08/22 13:28:55;;;;;;;3.20;2.60;;;;;;;19.79;83.05;98941.47;4993686;28;20113;-79
2021/08/22 13:31:21;;;;;;;2.28;2.08;;;;;;;19.86;83.97;98937.56;4993248;28;20102;-79
2021/08/22 13:33:47;;;;;;;2.20;2.00;;;;;;;19.98;82.24;98943.97;4966999;28;20050;-79
2021/08/22 13:36:13;;;;;;;2.55;2.15;;;;;;;20.16;82.40;98944.72;4958013;28;20019;-79
2021/08/22 13:38:38;;;;;;;3.00;2.30;;;;;;;20.20;81.44;98952.38;4954390;29;20027;-80
2021/08/22 13:41:03;;;;;;;3.25;2.20;;;;;;;20.17;80.28;98946.44;4954754;29;20054;-75
2021/08/22 13:43:29;;;;;;;3.72;2.20;;;;;;;19.97;80.39;98937.00;4954712;29;20026;-76
2021/08/22 13:45:56;;;;;;;2.88;2.13;;;;;;;19.95;81.51;98937.06;4954561;29;20110;-80
2021/08/22 13:48:22;;;;;;;3.00;2.35;;;;;;;19.86;81.04;98929.69;4954762;29;20027;-79
2021/08/22 13:50:47;;;;;;;2.80;2.03;;;;;;;19.68;82.29;98928.88;4975148;28;20027;-79
2021/08/22 13:53:12;;;;;;;3.40;2.10;;;;;;;20.03;81.97;98918.25;4993074;28;20026;-72
2021/08/22 13:55:39;;;;;;;2.03;1.90;;;;;;;19.97;81.77;98929.13;4993209;28;20130;-75
2021/08/22 13:58:05;;;;;;;3.03;1.92;;;;;;;20.06;80.88;98928.59;4993284;28;20034;-77
2021/08/22 14:00:32;;;;;;;4.75;2.42;;;;;;;20.05;80.80;98923.44;4993177;28;20030;-75
2021/08/22 14:02:57;;;;;;;4.85;2.60;;;;;;;19.61;83.32;98927.50;4975024;28;20055;-75
2021/08/22 14:05:23;;;;;;;3.13;2.45;;;;;;;19.40;83.93;98939.09;4962174;28;20057;-74
2021/08/22 14:07:50;;;;;;;4.05;2.45;;;;;;;19.11;86.42;98936.19;4954129;29;20023;-74
2021/08/22 14:10:16;;;;;;;9.35;5.78;;;;;;;19.08;86.60;98946.81;4954193;29;20469;-73
2021/08/22 14:12:42;;;;;;;3.35;2.40;;;;;;;18.66;89.41;98953.25;4958524;28;20061;-76
2021/08/22 14:15:09;;;;;;;4.47;2.60;;;;;;;18.38;90.93;98956.31;4964453;28;20039;-73
2021/08/22 14:17:35;;;;;;;3.38;2.60;;;;;;;18.29;93.40;98950.66;4963805;28;20015;-74
2021/08/22 14:20:00;;;;;;;3.90;2.75;;;;;;;18.13;93.24;98948.75;4964551;28;20114;-74
2021/08/22 14:22:26;;;;;;;3.30;2.90;;;;;;;17.96;96.50;98941.63;4964222;28;20037;-73
2021/08/22 14:24:51;;;;;;;3.95;2.72;;;;;;;18.02;95.32;98939.66;4963296;28;20029;-74
2021/08/22 14:27:17;;;;;;;3.83;2.67;;;;;;;18.19;95.00;98932.72;4964317;28;20031;-73
2021/08/22 14:29:42;;;;;;;3.13;2.83;;;;;;;18.24;96.06;98933.34;4963482;28;20496;-73
2021/08/22 14:32:11;;;;;;;3.85;2.78;;;;;;;18.78;92.07;98929.97;4964319;28;20031;-74
2021/08/22 14:34:37;;;;;;;11.60;2.67;;;;;;;18.99;89.71;98918.41;4964517;28;20023;-74
2021/08/22 14:37:03;;;;;;;3.40;2.70;;;;;;;19.33;88.83;98921.94;4964484;28;20153;-74
2021/08/22 14:39:28;;;;;;;2.63;2.40;;;;;;;19.48;88.71;98919.34;4964706;28;20123;-74
2021/08/22 14:41:54;;;;;;;3.35;2.67;;;;;;;19.25;90.33;98910.06;4964517;28;20042;-74
2021/08/22 14:44:19;;;;;;;2.60;1.98;;;;;;;19.39;89.05;98911.09;4964654;28;20062;-73
2021/08/22 14:46:44;;;;;;;3.45;2.70;;;;;;;19.90;86.85;98912.81;4964434;28;20118;-74
2021/08/22 14:49:09;;;;;;;3.58;2.78;;;;;;;20.00;82.94;98913.16;4953427;28;20038;-74
2021/08/22 14:51:35;;;;;;;5.38;2.10;;;;;;;19.82;84.20;98919.41;4953075;28;20089;-74
2021/08/22 14:54:01;;;;;;;3.05;2.50;;;;;;;19.67;86.65;98921.91;4949028;28;20023;-77
2021/08/22 14:56:27;;;;;;;4.57;2.15;;;;;;;19.44;85.90;98930.13;4945737;28;21057;-77
2021/08/22 14:58:53;;;;;;;3.40;2.10;;;;;;;19.10;86.04;98936.22;4945062;28;20033;-77
2021/08/22 15:01:19;;;;;;;3.03;2.55;;;;;;;18.82;89.22;98942.03;4937076;28;20085;-77
2021/08/22 15:03:45;;;;;;;3.65;2.88;;;;;;;18.63;92.93;98932.38;4936103;28;20420;-77
2021/08/22 15:06:10;;;;;;;3.25;2.60;;;;;;;18.78;92.81;98929.97;4933348;28;20027;-77
2021/08/22 15:08:36;;;;;;;3.38;2.40;;;;;;;19.28;87.90;98927.44;4936300;28;20030;-77
2021/08/22 15:11:01;;;;;;;3.53;3.15;;;;;;;19.08;89.18;98932.84;4935120;28;20035;-77
2021/08/22 15:13:29;;;;;;;4.32;3.13;;;;;;;18.88;89.79;98931.22;4937262;28;20031;-77
2021/08/22 15:15:54;;;;;;;3.95;3.20;;;;;;;18.89;89.83;98917.16;4937013;28;20034;-77
2021/08/22 15:18:19;;;;;;;3.03;2.53;;;;;;;19.03;88.95;98917.31;4942476;28;20027;-77
2021/08/22 15:20:45;;;;;;;3.20;2.70;;;;;;;19.02;87.54;98915.63;4949754;28;20035;-77
2021/08/22 15:23:11;;;;;;;3.72;2.78;;;;;;;18.93;88.19;98921.34;4950003;28;20030;-77
2021/08/22 15:25:37;;;;;;;4.97;3.00;;;;;;;19.24;88.37;98924.13;4959226;28;20057;-77
2021/08/22 15:28:05;;;;;;;6.03;3.25;;;;;;;19.13;88.73;98939.56;4957678;28;20957;-76
2021/08/22 15:30:33;;;;;;;7.32;2.70;;;;;;;19.06;89.95;98930.31;4960901;28;20034;-77
2021/08/22 15:32:59;;;;;;;2.72;2.35;;;;;;;18.84;93.60;98940.16;4964663;28;20497;-75
2021/08/22 15:35:25;;;;;;;3.30;2.72;;;;;;;18.83;94.43;98944.56;4964554;28;20041;-76
2021/08/22 15:37:50;;;;;;;3.70;3.08;;;;;;;18.79;94.55;98939.53;4965120;28;20648;-79
2021/08/22 15:40:18;;;;;;;3.85;2.60;;;;;;;18.84;91.91;98945.41;4968069;28;20137;-75
2021/08/22 15:42:44;;;;;;;3.80;2.92;;;;;;;18.72;92.03;98947.72;4966752;28;20031;-73
2021/08/22 15:45:09;;;;;;;3.10;2.55;;;;;;;18.65;95.85;98943.66;4967677;28;20046;-77
2021/08/22 15:47:35;;;;;;;2.50;2.30;;;;;;;18.70;94.24;98944.31;4967629;28;20395;-75
2021/08/22 15:50:00;;;;;;;4.53;2.90;;;;;;;18.97;91.85;98939.50;4967509;28;20030;-74
2021/08/22 15:52:25;;;;;;;3.97;2.75;;;;;;;18.94;92.10;98925.66;4967393;28;20027;-74
2021/08/22 15:54:51;;;;;;;4.28;2.53;;;;;;;18.99;90.89;98923.66;4967535;28;20472;-75
2021/08/22 15:57:20;;;;;;;3.22;2.05;;;;;;;18.93;91.95;98937.09;4967628;28;20027;-74
2021/08/22 15:59:46;;;;;;;2.90;2.47;;;;;;;18.61;93.86;98949.97;4967495;28;20073;-72
2021/08/22 16:02:11;;;;;;;5.90;2.90;;;;;;;18.65;94.32;99008.41;4967187;28;20555;-72
2021/08/22 16:04:36;;;;;;;10.73;3.50;;;;;;;17.97;99.91;99052.59;4966913;28;20046;-71
2021/08/22 16:07:02;;;;;;;2.38;1.40;;;;;;;16.60;98.51;99017.16;4967101;28;20054;-72
2021/08/22 16:09:27;;;;;;;3.05;2.20;;;;;;;16.44;100.00;99032.59;4967231;28;20381;-73
2021/08/22 16:11:55;;;;;;;3.83;2.10;;;;;;;16.33;100.00;99024.28;4966998;28;20030;-71
2021/08/22 16:14:21;;;;;;;3.38;2.38;;;;;;;16.39;100.00;99005.75;4967151;28;20037;-71
2021/08/22 16:16:46;;;;;;;4.82;1.98;;;;;;;16.44;100.00;99003.84;4981901;28;20023;-71
2021/08/22 16:19:11;;;;;;;3.17;1.85;;;;;;;16.59;100.00;99021.56;4967184;28;20045;-71
2021/08/22 16:21:37;;;;;;;4.32;1.58;;;;;;;16.49;100.00;99028.03;4966866;28;20031;-74
2021/08/22 16:24:02;;;;;;;2.65;1.83;;;;;;;16.34;100.00;99012.91;4967296;28;20090;-75
2021/08/22 16:26:28;;;;;;;23.42;15.57;;;;;;;16.54;100.00;99006.94;4966793;28;20019;-78
2021/08/22 16:28:53;;;;;;;3.97;2.13;;;;;;;16.66;100.00;99009.91;4967017;28;20066;-77
2021/08/22 16:31:18;;;;;;;3.80;2.08;;;;;;;16.54;100.00;99002.56;4966603;28;20038;-78
2021/08/22 16:33:44;;;;;;;4.75;2.55;;;;;;;16.75;100.00;99010.50;4966529;28;20033;-78
2021/08/22 16:36:10;;;;;;;6.38;2.33;;;;;;;16.80;100.00;99013.81;4966554;28;20023;-78
2021/08/22 16:38:35;;;;;;;2.53;2.20;;;;;;;16.90;100.00;99023.84;4966742;28;20076;-76
2021/08/22 16:41:01;;;;;;;2.72;2.15;;;;;;;16.75;100.00;99015.75;4966876;28;20444;-76
2021/08/22 16:43:27;;;;;;;5.93;2.20;;;;;;;16.88;100.00;99011.75;4966497;28;20441;-76
2021/08/22 16:45:52;;;;;;;6.68;2.45;;;;;;;16.61;100.00;99030.19;4966392;28;20033;-76
2021/08/22 16:48:18;;;;;;;3.38;2.33;;;;;;;16.41;100.00;99030.94;4966403;28;20033;-75
2021/08/22 16:50:44;;;;;;;4.85;2.40;;;;;;;16.35;100.00;99043.41;4966641;28;20027;-75
2021/08/22 16:53:09;;;;;;;13.00;2.47;;;;;;;16.24;100.00;99040.31;4966159;28;20033;-75
2021/08/22 16:55:35;;;;;;;19.23;14.40;;;;;;;16.26;100.00;99051.59;4966436;28;20149;-76
2021/08/22 16:58:02;;;;;;;4.15;2.25;;;;;;;16.03;100.00;98990.53;4966252;28;20110;-72
2021/08/22 17:00:28;;;;;;;3.90;2.47;;;;;;;16.15;100.00;99020.63;4966114;28;20527;-75
2021/08/22 17:02:53;;;;;;;4.18;2.60;;;;;;;16.28;100.00;99031.44;4965705;28;20035;-75
2021/08/22 17:05:19;;;;;;;5.28;2.72;;;;;;;16.26;100.00;99030.66;4966041;28;20498;-75
2021/08/22 17:07:44;;;;;;;7.57;2.83;;;;;;;16.35;100.00;99038.19;4964532;28;20041;-74
2021/08/22 17:10:10;;;;;;;4.85;2.72;;;;;;;16.39;100.00;99043.22;4966081;28;20037;-75
2021/08/22 17:12:36;;;;;;;4.03;2.50;;;;;;;16.52;100.00;99048.84;4964445;28;20547;-75
2021/08/22 17:15:02;;;;;;;7.30;2.72;;;;;;;16.62;100.00;99034.50;4965579;28;20031;-75
2021/08/22 17:17:28;;;;;;;6.75;2.38;;;;;;;16.85;100.00;99032.78;4964518;28;20023;-75
2021/08/22 17:19:53;;;;;;;6.38;2.20;;;;;;;16.98;100.00;99017.47;4965644;28;21347;-75
2021/08/22 17:22:20;;;;;;;3.40;2.10;;;;;;;17.15;100.00;99021.09;4965708;28;20034;-75
2021/08/22 17:24:47;;;;;;;3.03;2.35;;;;;;;17.36;100.00;99034.22;4965844;28;20431;-75
2021/08/22 17:27:13;;;;;;;4.03;2.50;;;;;;;17.43;99.76;99038.28;4965843;28;20466;-75
2021/08/22 17:29:38;;;;;;;9.00;2.83;;;;;;;17.52;98.27;99037.06;4965743;28;20106;-75
2021/08/22 17:32:06;;;;;;;8.88;3.72;;;;;;;17.54;96.74;99032.59;4965531;28;20117;-75
2021/08/22 17:34:32;;;;;;;3.25;2.20;;;;;;;17.34;95.96;99042.13;4965307;28;20506;-75
2021/08/22 17:36:59;;;;;;;2.63;2.20;;;;;;;17.21;95.11;99038.31;4959854;28;20022;-75
2021/08/22 17:39:25;;;;;;;3.08;2.00;;;;;;;17.18;98.27;99046.31;4954348;28;20106;-75
2021/08/22 17:41:50;;;;;;;3.22;2.17;;;;;;;17.12;98.97;99036.94;4949979;28;20038;-75
2021/08/22 17:44:15;;;;;;;3.30;2.30;;;;;;;16.91;99.81;99048.25;4944487;28;20069;-75
2021/08/22 17:46:41;;;;;;;2.40;2.20;;;;;;;16.76;100.00;99043.63;4943594;28;20033;-75
2021/08/22 17:49:07;;;;;;;4.80;2.40;;;;;;;16.69;100.00;99048.22;4936526;28;20037;-75
2021/08/22 17:51:33;;;;;;;2.60;2.30;;;;;;;16.63;100.00;99046.69;4934356;28;20138;-75
2021/08/22 17:53:59;;;;;;;4.53;2.13;;;;;;;16.66;100.00;99038.69;4926131;28;20030;-75
2021/08/22 17:56:25;;;;;;;6.63;2.72;;;;;;;16.52;100.00;99038.38;4929111;28;20195;-75
2021/08/22 17:58:50;;;;;;;3.63;2.47;;;;;;;16.52;100.00;99035.75;4925030;28;20039;-75
2021/08/22 18:01:15;;;;;;;4.07;2.00;;;;;;;16.45;100.00;99045.63;4918176;28;20047;-75
2021/08/22 18:03:42;;;;;;;4.75;2.50;;;;;;;16.39;100.00;99042.34;4920591;28;20050;-75
2021/08/22 18:06:08;;;;;;;3.33;1.92;;;;;;;16.25;100.00;99037.66;4924130;28;20030;-75
2021/08/22 18:08:33;;;;;;;6.45;2.47;;;;;;;16.24;100.00;99040.31;4937664;28;20026;-75
2021/08/22 18:10:58;;;;;;;10.27;4.55;;;;;;;16.34;100.00;99031.22;4940739;28;20062;-75
2021/08/22 18:13:25;;;;;;;4.40;2.83;;;;;;;16.12;100.00;99032.03;4948934;28;20033;-75
2021/08/22 18:15:51;;;;;;;3.78;2.65;;;;;;;15.97;100.00;99032.56;4950191;28;20142;-75
2021/08/22 18:18:16;;;;;;;2.72;2.50;;;;;;;15.82;100.00;99038.34;4957545;28;20049;-75
2021/08/22 18:20:43;;;;;;;7.80;2.72;;;;;;;15.74;100.00;99042.97;4964922;28;20170;-75
2021/08/22 18:23:08;;;;;;;6.63;3.05;;;;;;;15.59;100.00;99037.34;4958645;28;20031;-75
2021/08/22 18:25:34;;;;;;;3.70;2.65;;;;;;;15.43;100.00;99036.16;4950661;28;20022;-75
2021/08/22 18:27:59;;;;;;;4.18;2.72;;;;;;;15.26;100.00;99044.53;4950112;28;20077;-74
2021/08/22 18:30:24;;;;;;;3.65;2.92;;;;;;;15.18;100.00;99046.53;4945874;28;20129;-74
2021/08/22 18:32:51;;;;;;;3.78;2.45;;;;;;;15.12;100.00;99051.97;4940698;28;20030;-74
2021/08/22 18:35:16;;;;;;;7.20;3.28;;;;;;;15.04;100.00;99054.84;4941143;28;20540;-74
2021/08/22 18:37:41;;;;;;;4.32;2.95;;;;;;;14.97;100.00;99058.53;4941522;28;20026;-74
2021/08/22 18:40:08;;;;;;;4.05;2.90;;;;;;;14.94;100.00;99057.75;4939567;28;20065;-74
2021/08/22 18:42:47;;;;;;;6.00;2.60;;;;;;;14.97;100.00;99063.75;4929121;28;20034;-74